Time;durP1;ratioP1;P1;durP2;ratioP2;P2;SDS_P1;SDS_P2;PMS_P1;PMS_P2;Temp;Humidity;BMP_temperature;BMP_pressure;BME280_temperature;BME280_humidity;BME280_pressure;Samples;Min_cycle;Max_cycle;Signal;HPM_P1;HPM_P2
2021/03/17 00:00:38;;;;;;;9.63;2.33;;;;;;;;;;5128033;28;20090;-78
2021/03/17 00:03:08;;;;;;;9.93;2.35;;;;;;;;;;5123351;28;20066;-79
2021/03/17 00:05:40;;;;;;;9.02;2.60;;;;;;;;;;5120178;28;20086;-80
2021/03/17 00:08:08;;;;;;;10.88;2.65;;;;;;;;;;5117586;28;20043;-79
2021/03/17 00:10:35;;;;;;;3.28;1.80;;;;;;;;;;5115751;28;20062;-79
2021/03/17 00:13:02;;;;;;;9.10;2.03;;;;;;;;;;5115917;28;20075;-79
2021/03/17 00:15:29;;;;;;;14.48;3.97;;;;;;;;;;5117094;28;20158;-79
2021/03/17 00:17:56;;;;;;;12.00;2.03;;;;;;;;;;5116950;28;20048;-80
2021/03/17 00:20:24;;;;;;;9.48;2.67;;;;;;;;;;5118360;28;20055;-81
2021/03/17 00:22:55;;;;;;;7.35;2.13;;;;;;;;;;5118066;28;20066;-80
2021/03/17 00:25:29;;;;;;;12.20;3.00;;;;;;;;;;5120895;28;20051;-80
2021/03/17 00:28:01;;;;;;;13.32;3.08;;;;;;;;;;5123547;28;20098;-80
2021/03/17 00:30:31;;;;;;;19.08;3.17;;;;;;;;;;5124087;28;20051;-79
2021/03/17 00:33:00;;;;;;;9.27;3.83;;;;;;;;;;5117277;28;20138;-79
2021/03/17 00:35:27;;;;;;;10.88;2.72;;;;;;;;;;5119749;28;20139;-79
2021/03/17 00:37:57;;;;;;;13.93;2.83;;;;;;;;;;5119817;28;20059;-80
2021/03/17 00:40:25;;;;;;;9.40;2.53;;;;;;;;;;5119414;28;20078;-80
2021/03/17 00:42:54;;;;;;;7.55;2.20;;;;;;;;;;5120697;28;20048;-79
2021/03/17 00:45:23;;;;;;;11.13;2.42;;;;;;;;;;5121343;28;20117;-80
2021/03/17 00:47:56;;;;;;;12.65;3.00;;;;;;;;;;5121351;27;20058;-80
2021/03/17 00:50:22;;;;;;;12.20;2.78;;;;;;;;;;5120625;28;20047;-80
2021/03/17 00:52:56;;;;;;;9.98;2.47;;;;;;;;;;5121077;27;20067;-80
2021/03/17 00:55:25;;;;;;;12.07;2.33;;;;;;;;;;5122105;28;20058;-80
2021/03/17 00:57:53;;;;;;;8.55;2.25;;;;;;;;;;5130553;28;20031;-80
2021/03/17 01:00:23;;;;;;;20.25;3.15;;;;;;;;;;5133648;28;20066;-80
2021/03/17 01:02:49;;;;;;;15.57;2.60;;;;;;;;;;5134101;27;20056;-80
2021/03/17 01:05:16;;;;;;;5.00;2.08;;;;;;;;;;5132206;28;20058;-80
2021/03/17 01:07:46;;;;;;;10.65;2.38;;;;;;;;;;5120405;28;20055;-81
2021/03/17 01:10:15;;;;;;;9.75;2.05;;;;;;;;;;5118543;28;20403;-81
2021/03/17 01:12:44;;;;;;;9.57;2.42;;;;;;;;;;5118994;28;20062;-80
2021/03/17 01:15:28;;;;;;;6.50;2.10;;;;;;;;;;5129324;28;20235;-80
2021/03/17 01:18:04;;;;;;;10.13;2.92;;;;;;;;;;5130795;28;20044;-82
2021/03/17 01:20:31;;;;;;;11.80;2.80;;;;;;;;;;5135052;28;20041;-83
2021/03/17 01:22:57;;;;;;;5.20;2.45;;;;;;;;;;5136030;28;20043;-83
2021/03/17 01:25:45;;;;;;;14.27;3.85;;;;;;;;;;5133809;28;20040;-83
2021/03/17 01:28:11;;;;;;;16.13;4.35;;;;;;;;;;5124050;28;20105;-83
2021/03/17 01:30:39;;;;;;;12.30;3.13;;;;;;;;;;5124470;28;20032;-83
2021/03/17 01:33:08;;;;;;;7.85;2.65;;;;;;;;;;5134728;28;20040;-82
2021/03/17 01:35:34;;;;;;;6.72;2.38;;;;;;;;;;5125779;28;20044;-83
2021/03/17 01:38:00;;;;;;;8.80;2.60;;;;;;;;;;5117533;28;20048;-83
2021/03/17 01:40:27;;;;;;;11.48;2.65;;;;;;;;;;5119103;28;20044;-83
2021/03/17 01:42:54;;;;;;;6.40;2.38;;;;;;;;;;5117389;28;20139;-83
2021/03/17 01:45:32;;;;;;;7.53;2.20;;;;;;;;;;5116512;28;20387;-83
2021/03/17 01:48:05;;;;;;;5.68;3.03;;;;;;;;;;5117157;28;20135;-83
2021/03/17 01:50:32;;;;;;;11.65;2.17;;;;;;;;;;5118488;28;20082;-83
2021/03/17 01:53:09;;;;;;;8.15;2.10;;;;;;;;;;5116719;28;20134;-83
2021/03/17 01:55:39;;;;;;;5.80;2.30;;;;;;;;;;5119469;28;20199;-83
2021/03/17 01:58:11;;;;;;;9.38;2.85;;;;;;;;;;5120219;28;20195;-84
2021/03/17 02:00:39;;;;;;;10.75;2.38;;;;;;;;;;5119485;28;20143;-83
2021/03/17 02:03:06;;;;;;;4.00;1.92;;;;;;;;;;5121750;28;20059;-83
2021/03/17 02:05:33;;;;;;;7.15;2.47;;;;;;;;;;5120273;28;20055;-83
2021/03/17 02:08:01;;;;;;;8.55;2.28;;;;;;;;;;5118351;28;20573;-83
2021/03/17 02:10:30;;;;;;;11.00;2.10;;;;;;;;;;5116787;28;20070;-83
2021/03/17 02:13:15;;;;;;;7.22;2.08;;;;;;;;;;5117196;28;20039;-83
2021/03/17 02:15:41;;;;;;;6.00;2.08;;;;;;;;;;5117470;28;20047;-83
2021/03/17 02:18:37;;;;;;;13.05;2.63;;;;;;;;;;5117014;28;20051;-83
2021/03/17 02:21:35;;;;;;;7.07;1.77;;;;;;;;;;5098529;28;20123;-83
2021/03/17 02:24:03;;;;;;;8.00;1.88;;;;;;;;;;5118067;28;20052;-82
2021/03/17 02:26:35;;;;;;;5.53;2.10;;;;;;;;;;5118305;28;20071;-82
2021/03/17 02:29:36;;;;;;;9.90;2.85;;;;;;;;;;5115338;28;20078;-82
2021/03/17 02:32:07;;;;;;;8.77;3.38;;;;;;;;;;5115674;28;20069;-82
2021/03/17 02:34:40;;;;;;;12.27;4.20;;;;;;;;;;5116961;28;20331;-82
2021/03/17 02:37:07;;;;;;;10.23;3.80;;;;;;;;;;5116463;28;20359;-82
2021/03/17 02:39:41;;;;;;;9.40;3.70;;;;;;;;;;5117481;28;20056;-82
2021/03/17 02:42:25;;;;;;;9.07;3.45;;;;;;;;;;5116261;28;20054;-82
2021/03/17 02:45:03;;;;;;;12.70;3.25;;;;;;;;;;5117048;28;20438;-82
2021/03/17 02:47:31;;;;;;;10.80;3.85;;;;;;;;;;5117686;28;20051;-82
2021/03/17 02:50:03;;;;;;;8.73;3.58;;;;;;;;;;5116822;28;20043;-82
2021/03/17 02:52:34;;;;;;;14.70;3.78;;;;;;;;;;5121023;28;20044;-82
2021/03/17 02:55:04;;;;;;;10.02;3.47;;;;;;;;;;5132648;28;20042;-82
2021/03/17 02:57:35;;;;;;;11.85;3.58;;;;;;;;;;5132038;28;20044;-82
2021/03/17 03:00:03;;;;;;;19.08;3.58;;;;;;;;;;5132813;28;20058;-82
2021/03/17 03:02:29;;;;;;;5.07;2.97;;;;;;;;;;5129234;28;20047;-82
2021/03/17 03:04:56;;;;;;;6.55;2.97;;;;;;;;;;5128043;28;20059;-82
2021/03/17 03:07:24;;;;;;;15.45;4.82;;;;;;;;;;5120818;28;20206;-82
2021/03/17 03:10:01;;;;;;;8.77;3.20;;;;;;;;;;5118342;28;20055;-81
2021/03/17 03:12:29;;;;;;;17.38;3.53;;;;;;;;;;5116706;28;20099;-81
2021/03/17 03:14:56;;;;;;;11.90;3.42;;;;;;;;;;5116778;28;20043;-82
2021/03/17 03:17:23;;;;;;;9.13;3.90;;;;;;;;;;5117666;28;20043;-81
2021/03/17 03:19:57;;;;;;;9.48;2.97;;;;;;;;;;5116972;28;20312;-82
2021/03/17 03:22:27;;;;;;;9.57;2.45;;;;;;;;;;5117691;28;20051;-82
2021/03/17 03:24:56;;;;;;;8.52;2.67;;;;;;;;;;5120121;28;20242;-82
2021/03/17 03:27:23;;;;;;;11.30;2.72;;;;;;;;;;5130581;28;20119;-81
2021/03/17 03:29:51;;;;;;;8.80;3.15;;;;;;;;;;5127850;28;20338;-81
2021/03/17 03:32:17;;;;;;;7.53;2.92;;;;;;;;;;5118151;28;20048;-81
2021/03/17 03:34:58;;;;;;;9.85;3.25;;;;;;;;;;5120263;28;20048;-81
2021/03/17 03:37:26;;;;;;;6.03;2.72;;;;;;;;;;5119167;28;20121;-81
2021/03/17 03:39:53;;;;;;;7.32;3.40;;;;;;;;;;5118573;28;20062;-81
2021/03/17 03:42:19;;;;;;;11.10;2.65;;;;;;;;;;5119907;28;20049;-81
2021/03/17 03:44:45;;;;;;;12.85;3.45;;;;;;;;;;5119068;28;20134;-81
2021/03/17 03:47:11;;;;;;;6.93;2.95;;;;;;;;;;5119617;28;20319;-79
2021/03/17 03:49:38;;;;;;;8.27;3.38;;;;;;;;;;5118666;28;20539;-80
2021/03/17 03:52:10;;;;;;;7.75;2.47;;;;;;;;;;5121421;27;20048;-79
2021/03/17 03:54:48;;;;;;;6.25;2.22;;;;;;;;;;5120447;28;20051;-80
2021/03/17 03:57:28;;;;;;;6.85;3.45;;;;;;;;;;5118902;28;20058;-80
2021/03/17 03:59:59;;;;;;;11.90;3.22;;;;;;;;;;5119528;28;20346;-80
2021/03/17 04:02:26;;;;;;;14.32;3.30;;;;;;;;;;5118007;28;20043;-80
2021/03/17 04:04:55;;;;;;;11.77;2.53;;;;;;;;;;5117949;28;20047;-79
2021/03/17 04:07:22;;;;;;;15.35;3.15;;;;;;;;;;5118338;28;20047;-79
2021/03/17 04:09:55;;;;;;;17.00;2.88;;;;;;;;;;5115493;28;20055;-79
2021/03/17 04:12:25;;;;;;;16.02;3.13;;;;;;;;;;5115832;28;20296;-79
2021/03/17 04:14:54;;;;;;;9.23;2.67;;;;;;;;;;5117428;28;20059;-80
2021/03/17 04:17:32;;;;;;;11.00;2.17;;;;;;;;;;5116384;28;20331;-80
2021/03/17 04:20:14;;;;;;;10.90;2.35;;;;;;;;;;5117082;28;20048;-81
2021/03/17 04:22:43;;;;;;;17.67;2.78;;;;;;;;;;5116933;28;20047;-80
2021/03/17 04:25:14;;;;;;;5.07;1.98;;;;;;;;;;5116846;28;20052;-80
2021/03/17 04:27:42;;;;;;;15.02;3.05;;;;;;;;;;5117989;28;20047;-80
2021/03/17 04:30:15;;;;;;;15.75;3.33;;;;;;;;;;5116820;28;20306;-80
2021/03/17 04:32:42;;;;;;;12.10;2.83;;;;;;;;;;5118258;28;20049;-81
2021/03/17 04:35:09;;;;;;;10.73;3.33;;;;;;;;;;5119217;28;20457;-81
2021/03/17 04:37:36;;;;;;;8.38;2.80;;;;;;;;;;5117706;28;20400;-81
2021/03/17 04:40:06;;;;;;;7.15;2.75;;;;;;;;;;5116832;28;20066;-80
2021/03/17 04:42:43;;;;;;;12.00;3.03;;;;;;;;;;5116760;28;20148;-80
2021/03/17 04:45:11;;;;;;;12.50;2.67;;;;;;;;;;5116128;28;20349;-81
2021/03/17 04:47:39;;;;;;;13.82;3.17;;;;;;;;;;5116670;28;20052;-81
2021/03/17 04:50:07;;;;;;;8.98;2.65;;;;;;;;;;5115355;28;20374;-81
2021/03/17 04:52:33;;;;;;;13.65;2.80;;;;;;;;;;5115562;28;20052;-81
2021/03/17 04:55:01;;;;;;;9.25;3.00;;;;;;;;;;5128693;28;20043;-81
2021/03/17 04:57:29;;;;;;;14.75;3.38;;;;;;;;;;5128824;28;20048;-79
2021/03/17 04:59:56;;;;;;;14.10;3.60;;;;;;;;;;5117788;28;20055;-79
2021/03/17 05:02:27;;;;;;;12.63;2.72;;;;;;;;;;5114264;28;20420;-79
2021/03/17 05:04:55;;;;;;;11.93;3.13;;;;;;;;;;5116443;28;20043;-80
2021/03/17 05:07:23;;;;;;;10.57;3.38;;;;;;;;;;5123342;28;20056;-80
2021/03/17 05:09:51;;;;;;;16.60;3.08;;;;;;;;;;5124055;28;20134;-80
2021/03/17 05:12:20;;;;;;;11.57;3.08;;;;;;;;;;5117530;28;20043;-80
2021/03/17 05:14:47;;;;;;;8.73;2.80;;;;;;;;;;5114399;28;20052;-80
2021/03/17 05:17:15;;;;;;;7.78;2.20;;;;;;;;;;5112953;28;20051;-80
2021/03/17 05:19:42;;;;;;;13.18;3.00;;;;;;;;;;5113841;28;20450;-80
2021/03/17 05:22:09;;;;;;;17.98;3.30;;;;;;;;;;5100443;28;20108;-80
2021/03/17 05:24:35;;;;;;;8.18;2.60;;;;;;;;;;5093522;28;20101;-80
2021/03/17 05:27:11;;;;;;;12.70;3.50;;;;;;;;;;5095422;28;20221;-80
2021/03/17 05:29:39;;;;;;;10.93;3.35;;;;;;;;;;5104225;28;20060;-80
2021/03/17 05:32:10;;;;;;;36.88;4.82;;;;;;;;;;5103115;28;20060;-80
2021/03/17 05:34:55;;;;;;;18.65;3.92;;;;;;;;;;5101697;28;20044;-80
2021/03/17 05:37:27;;;;;;;17.75;4.47;;;;;;;;;;5092888;28;20044;-80
2021/03/17 05:39:53;;;;;;;15.20;3.70;;;;;;;;;;5091652;28;20154;-80
2021/03/17 05:42:20;;;;;;;13.73;3.35;;;;;;;;;;5091840;28;20059;-80
2021/03/17 05:44:48;;;;;;;23.85;4.28;;;;;;;;;;5111635;28;20051;-80
2021/03/17 05:47:15;;;;;;;10.20;2.60;;;;;;;;;;5110707;28;20300;-81
2021/03/17 05:49:50;;;;;;;11.02;2.20;;;;;;;;;;5112231;28;20051;-80
2021/03/17 05:52:18;;;;;;;9.63;2.00;;;;;;;;;;5113582;28;20047;-82
2021/03/17 05:54:44;;;;;;;12.95;2.80;;;;;;;;;;5112367;28;20112;-80
2021/03/17 05:57:11;;;;;;;7.57;2.10;;;;;;;;;;5114109;27;20049;-81
2021/03/17 05:59:38;;;;;;;13.10;2.20;;;;;;;;;;5113072;28;20070;-81
2021/03/17 06:02:07;;;;;;;8.73;1.98;;;;;;;;;;5113800;27;20048;-81
2021/03/17 06:04:34;;;;;;;12.55;2.42;;;;;;;;;;5112720;28;20092;-82
2021/03/17 06:07:03;;;;;;;9.30;2.47;;;;;;;;;;5111454;28;20047;-79
2021/03/17 06:09:30;;;;;;;11.13;2.75;;;;;;;;;;5110961;28;20043;-81
2021/03/17 06:11:59;;;;;;;15.30;2.40;;;;;;;;;;5109898;28;20044;-82
2021/03/17 06:14:28;;;;;;;9.80;1.92;;;;;;;;;;5108584;28;20155;-80
2021/03/17 06:16:58;;;;;;;18.55;2.20;;;;;;;;;;5138111;27;20048;-80
2021/03/17 06:19:29;;;;;;;10.55;2.08;;;;;;;;;;5110032;28;20358;-80
2021/03/17 06:21:55;;;;;;;12.25;1.67;;;;;;;;;;5109597;28;20404;-80
2021/03/17 06:24:22;;;;;;;11.43;2.08;;;;;;;;;;5112970;28;20068;-80
2021/03/17 06:26:49;;;;;;;14.68;2.65;;;;;;;;;;5118228;28;20107;-81
2021/03/17 06:29:16;;;;;;;12.88;2.45;;;;;;;;;;5102373;28;20055;-81
2021/03/17 06:31:48;;;;;;;9.73;1.88;;;;;;;;;;5090107;28;20128;-80
2021/03/17 06:34:17;;;;;;;10.13;1.65;;;;;;;;;;5101319;28;20140;-80
2021/03/17 06:36:47;;;;;;;9.57;2.10;;;;;;;;;;5109903;28;20304;-80
2021/03/17 06:39:14;;;;;;;9.93;2.22;;;;;;;;;;5109049;28;20203;-81
2021/03/17 06:41:52;;;;;;;15.52;2.55;;;;;;;;;;5119973;28;20104;-81
2021/03/17 06:44:37;;;;;;;9.38;1.95;;;;;;;;;;5104741;28;20048;-80
2021/03/17 06:47:15;;;;;;;10.25;1.90;;;;;;;;;;5116506;28;20070;-80
2021/03/17 06:49:53;;;;;;;7.75;2.08;;;;;;;;;;5099263;28;20386;-81
2021/03/17 06:52:32;;;;;;;6.18;1.67;;;;;;;;;;5089757;28;20052;-81
2021/03/17 06:55:07;;;;;;;7.35;1.80;;;;;;;;;;5101543;28;20043;-81
2021/03/17 06:57:34;;;;;;;9.80;1.83;;;;;;;;;;5094336;28;20115;-80
2021/03/17 07:00:18;;;;;;;8.40;2.30;;;;;;;;;;5107741;28;20048;-81
2021/03/17 07:02:58;;;;;;;7.65;2.10;;;;;;;;;;5106670;28;20135;-81
2021/03/17 07:05:36;;;;;;;7.70;2.00;;;;;;;;;;5093026;27;20260;-81
2021/03/17 07:08:04;;;;;;;12.55;2.40;;;;;;;;;;5092281;28;20058;-81
2021/03/17 07:10:54;;;;;;;4.65;1.25;;;;;;;;;;5093118;28;20056;-81
2021/03/17 07:13:24;;;;;;;12.70;2.63;;;;;;;;;;5090958;28;20569;-82
2021/03/17 07:15:54;;;;;;;15.73;2.42;;;;;;;;;;5091023;28;20149;-81
2021/03/17 07:18:23;;;;;;;17.85;2.35;;;;;;;;;;5098011;28;20063;-81
2021/03/17 07:20:55;;;;;;;11.10;1.98;;;;;;;;;;5092294;28;20108;-81
2021/03/17 07:23:26;;;;;;;9.32;2.17;;;;;;;;;;5111372;28;20051;-80
2021/03/17 07:26:03;;;;;;;13.68;1.92;;;;;;;;;;5112294;28;20043;-81
2021/03/17 07:28:54;;;;;;;12.90;2.00;;;;;;;;;;5112520;27;20071;-81
2021/03/17 07:31:26;;;;;;;7.90;2.60;;;;;;;;;;5111433;28;20075;-81
2021/03/17 07:33:55;;;;;;;11.27;1.90;;;;;;;;;;5110869;28;20043;-80
2021/03/17 07:36:39;;;;;;;9.20;2.28;;;;;;;;;;5112918;28;20096;-80
2021/03/17 07:39:09;;;;;;;4.65;1.60;;;;;;;;;;5112319;28;20052;-81
2021/03/17 07:41:41;;;;;;;4.88;1.50;;;;;;;;;;5103720;28;20066;-82
2021/03/17 07:44:11;;;;;;;11.82;3.60;;;;;;;;;;5123807;27;20343;-81
2021/03/17 07:46:42;;;;;;;10.45;2.35;;;;;;;;;;5092084;28;20152;-81
2021/03/17 07:49:11;;;;;;;9.20;2.15;;;;;;;;;;5090084;28;20075;-81
2021/03/17 07:52:02;;;;;;;13.05;2.47;;;;;;;;;;5092212;28;20040;-81
2021/03/17 07:54:34;;;;;;;11.10;1.92;;;;;;;;;;5093596;28;20058;-80
2021/03/17 07:57:06;;;;;;;13.57;2.83;;;;;;;;;;5108200;28;20047;-81
2021/03/17 07:59:39;;;;;;;8.48;1.55;;;;;;;;;;5111657;28;20078;-81
2021/03/17 08:02:09;;;;;;;14.15;3.10;;;;;;;;;;5110830;27;20509;-81
2021/03/17 08:04:37;;;;;;;7.85;2.53;;;;;;;;;;5111242;28;20135;-81
2021/03/17 08:07:04;;;;;;;11.60;2.65;;;;;;;;;;5100332;28;20242;-81
2021/03/17 08:09:30;;;;;;;11.90;2.22;;;;;;;;;;5090816;28;20083;-82
2021/03/17 08:11:58;;;;;;;16.63;2.67;;;;;;;;;;5097452;28;20065;-81
2021/03/17 08:14:26;;;;;;;11.93;3.28;;;;;;;;;;5108047;28;20047;-81
2021/03/17 08:16:55;;;;;;;13.60;3.00;;;;;;;;;;5108726;28;20036;-81
2021/03/17 08:19:32;;;;;;;14.48;2.47;;;;;;;;;;5106247;28;20142;-81
2021/03/17 08:22:03;;;;;;;10.48;3.05;;;;;;;;;;5110752;27;20546;-81
2021/03/17 08:24:44;;;;;;;10.80;3.08;;;;;;;;;;5109850;28;20134;-81
2021/03/17 08:27:11;;;;;;;18.10;2.85;;;;;;;;;;5119595;28;20050;-82
2021/03/17 08:30:10;;;;;;;13.90;2.47;;;;;;;;;;5125378;28;20227;-82
2021/03/17 08:32:59;;;;;;;8.57;2.42;;;;;;;;;;5082824;28;20327;-82
2021/03/17 08:35:45;;;;;;;13.40;2.42;;;;;;;;;;5112376;28;20135;-82
2021/03/17 08:38:14;;;;;;;9.65;1.50;;;;;;;;;;5112408;27;20134;-82
2021/03/17 08:40:46;;;;;;;8.00;1.90;;;;;;;;;;5125023;28;20145;-82
2021/03/17 08:43:32;;;;;;;7.20;1.63;;;;;;;;;;5117303;28;20441;-82
2021/03/17 08:46:10;;;;;;;10.55;1.73;;;;;;;;;;5092168;28;20075;-81
2021/03/17 08:49:13;;;;;;;15.32;1.95;;;;;;;;;;5108996;28;20260;-81
2021/03/17 08:51:46;;;;;;;13.98;2.45;;;;;;;;;;5086286;28;20063;-82
2021/03/17 08:54:31;;;;;;;5.72;1.25;;;;;;;;;;5104769;28;20297;-82
2021/03/17 08:57:09;;;;;;;10.07;1.98;;;;;;;;;;5111217;28;20043;-81
2021/03/17 09:00:00;;;;;;;10.75;2.15;;;;;;;;;;5119631;28;20209;-82
2021/03/17 09:02:26;;;;;;;7.20;1.33;;;;;;;;;;5110681;28;20059;-82
2021/03/17 09:04:56;;;;;;;8.63;1.88;;;;;;;;;;5110349;28;20302;-82
2021/03/17 09:07:35;;;;;;;9.00;1.98;;;;;;;;;;5109176;28;20070;-81
2021/03/17 09:10:12;;;;;;;4.43;1.58;;;;;;;;;;5108403;28;20054;-82
2021/03/17 09:12:43;;;;;;;7.07;1.58;;;;;;;;;;5108414;28;20105;-80
2021/03/17 09:15:14;;;;;;;9.20;1.75;;;;;;;;;;5110480;28;20048;-81
2021/03/17 09:17:49;;;;;;;9.00;1.80;;;;;;;;;;5095194;28;20058;-81
2021/03/17 09:20:38;;;;;;;12.53;1.87;;;;;;;;;;5088612;28;20072;-81
2021/03/17 09:23:16;;;;;;;7.47;1.58;;;;;;;;;;5083814;28;20601;-81
2021/03/17 09:25:43;;;;;;;6.57;1.38;;;;;;;;;;5111070;28;20035;-81
2021/03/17 09:28:18;;;;;;;3.83;0.82;;;;;;;;;;5123889;28;20031;-82
2021/03/17 09:30:53;;;;;;;7.90;1.40;;;;;;;;;;5098513;28;20177;-82
2021/03/17 09:33:23;;;;;;;8.88;1.52;;;;;;;;;;5107478;28;20138;-82
2021/03/17 09:35:51;;;;;;;5.15;1.38;;;;;;;;;;5105037;28;20174;-81
2021/03/17 09:38:19;;;;;;;8.68;1.38;;;;;;;;;;5101065;28;20048;-82
2021/03/17 09:40:54;;;;;;;7.57;1.40;;;;;;;;;;5119881;27;20114;-82
2021/03/17 09:43:53;;;;;;;6.93;0.93;;;;;;;;;;5142174;27;20051;-81
2021/03/17 09:46:40;;;;;;;7.18;1.08;;;;;;;;;;5142529;27;20262;-82
2021/03/17 09:49:09;;;;;;;11.10;1.10;;;;;;;;;;5136833;27;20173;-81
2021/03/17 09:51:49;;;;;;;4.82;0.82;;;;;;;;;;5130818;27;20079;-82
2021/03/17 09:54:24;;;;;;;3.78;1.20;;;;;;;;;;5127801;27;20093;-82
2021/03/17 09:56:53;;;;;;;8.30;1.40;;;;;;;;;;5130684;27;20462;-81
2021/03/17 09:59:39;;;;;;;4.97;0.98;;;;;;;;;;5108558;27;20052;-81
2021/03/17 10:02:19;;;;;;;7.07;1.10;;;;;;;;;;5107676;28;20052;-81
2021/03/17 10:04:48;;;;;;;6.20;1.05;;;;;;;;;;5104782;28;20631;-81
2021/03/17 10:07:30;;;;;;;9.35;1.33;;;;;;;;;;5103525;28;20300;-80
2021/03/17 10:09:58;;;;;;;8.77;1.42;;;;;;;;;;5103992;28;20404;-82
2021/03/17 10:12:27;;;;;;;4.43;1.02;;;;;;;;;;5088073;28;20072;-84
2021/03/17 10:14:55;;;;;;;6.50;1.23;;;;;;;;;;5086351;28;20076;-82
2021/03/17 10:17:25;;;;;;;9.50;2.17;;;;;;;;;;5089079;28;20171;-82
2021/03/17 10:19:54;;;;;;;4.13;0.90;;;;;;;;;;5086961;28;20044;-82
2021/03/17 10:22:21;;;;;;;9.20;1.33;;;;;;;;;;5087704;28;20052;-82
2021/03/17 10:24:48;;;;;;;14.60;1.60;;;;;;;;;;5101684;28;20075;-82
2021/03/17 10:27:18;;;;;;;9.73;1.55;;;;;;;;;;5108374;28;20138;-82
2021/03/17 10:29:47;;;;;;;11.52;1.20;;;;;;;;;;5104973;28;20095;-82
2021/03/17 10:32:14;;;;;;;9.27;1.55;;;;;;;;;;5109020;27;20067;-82
2021/03/17 10:34:41;;;;;;;7.95;1.60;;;;;;;;;;5121513;27;20097;-82
2021/03/17 10:37:10;;;;;;;6.63;1.52;;;;;;;;;;5118158;28;20069;-82
2021/03/17 10:39:36;;;;;;;4.78;1.25;;;;;;;;;;5118597;28;20035;-82
2021/03/17 10:42:21;;;;;;;8.30;1.42;;;;;;;;;;5113299;28;20115;-82
2021/03/17 10:45:02;;;;;;;4.40;1.02;;;;;;;;;;5109571;28;20059;-82
2021/03/17 10:47:32;;;;;;;13.50;1.40;;;;;;;;;;5106470;28;20043;-82
2021/03/17 10:50:02;;;;;;;6.25;1.30;;;;;;;;;;5109591;28;20047;-82
2021/03/17 10:52:33;;;;;;;4.85;1.33;;;;;;;;;;5107579;28;20067;-82
2021/03/17 10:55:09;;;;;;;5.43;1.55;;;;;;;;;;5108912;28;20048;-82
2021/03/17 10:57:36;;;;;;;7.10;1.30;;;;;;;;;;5101873;28;20052;-82
2021/03/17 11:00:13;;;;;;;8.43;1.42;;;;;;;;;;5103066;28;20227;-82
2021/03/17 11:02:40;;;;;;;5.65;1.02;;;;;;;;;;5115392;27;20138;-81
2021/03/17 11:05:07;;;;;;;5.47;1.08;;;;;;;;;;5127943;27;20047;-82
2021/03/17 11:07:53;;;;;;;5.47;1.10;;;;;;;;;;5128947;27;20286;-81
2021/03/17 11:10:32;;;;;;;5.05;1.25;;;;;;;;;;5127081;27;20080;-82
2021/03/17 11:13:01;;;;;;;11.50;1.50;;;;;;;;;;5124553;27;20188;-82
2021/03/17 11:15:30;;;;;;;6.45;0.93;;;;;;;;;;5127404;27;20135;-82
2021/03/17 11:18:02;;;;;;;5.82;1.67;;;;;;;;;;5126289;27;20123;-83
2021/03/17 11:20:29;;;;;;;6.55;1.30;;;;;;;;;;5126498;27;20095;-81
2021/03/17 11:22:55;;;;;;;11.25;1.23;;;;;;;;;;5126688;27;20339;-81
2021/03/17 11:25:25;;;;;;;8.55;1.20;;;;;;;;;;5088749;27;20203;-82
2021/03/17 11:27:54;;;;;;;4.88;0.98;;;;;;;;;;5104527;28;20052;-82
2021/03/17 11:30:21;;;;;;;5.63;1.10;;;;;;;;;;5110871;28;20065;-81
2021/03/17 11:32:48;;;;;;;7.57;1.30;;;;;;;;;;5102174;28;20050;-82
2021/03/17 11:35:23;;;;;;;4.32;0.82;;;;;;;;;;5091572;28;20052;-81
2021/03/17 11:37:50;;;;;;;5.00;0.95;;;;;;;;;;5098146;28;20044;-82
2021/03/17 11:40:17;;;;;;;6.05;1.40;;;;;;;;;;5104133;28;20521;-81
2021/03/17 11:42:43;;;;;;;5.10;0.82;;;;;;;;;;5104695;28;20051;-81
2021/03/17 11:45:14;;;;;;;9.82;1.27;;;;;;;;;;5106518;28;20283;-82
2021/03/17 11:47:40;;;;;;;6.07;1.42;;;;;;;;;;5103051;28;20230;-82
2021/03/17 11:50:11;;;;;;;5.22;1.40;;;;;;;;;;5105177;28;20144;-82
2021/03/17 11:52:52;;;;;;;3.65;1.02;;;;;;;;;;5105544;28;20112;-81
2021/03/17 11:55:22;;;;;;;5.50;1.35;;;;;;;;;;5101900;28;20058;-83
2021/03/17 11:57:48;;;;;;;6.80;1.10;;;;;;;;;;5112947;28;20052;-82
2021/03/17 12:00:19;;;;;;;5.68;1.60;;;;;;;;;;5118308;28;20044;-82
2021/03/17 12:02:46;;;;;;;5.93;1.23;;;;;;;;;;5118119;28;20059;-83
2021/03/17 12:05:13;;;;;;;4.20;1.17;;;;;;;;;;5110731;28;20067;-82
2021/03/17 12:07:51;;;;;;;5.03;1.40;;;;;;;;;;5094603;28;20052;-82
2021/03/17 12:10:18;;;;;;;4.57;1.58;;;;;;;;;;5094392;28;20058;-82
2021/03/17 12:12:50;;;;;;;5.30;1.17;;;;;;;;;;5091870;27;20381;-81
2021/03/17 12:15:19;;;;;;;9.57;1.70;;;;;;;;;;5122926;28;20115;-82
2021/03/17 12:17:49;;;;;;;6.65;1.25;;;;;;;;;;5122837;27;20070;-81
2021/03/17 12:20:19;;;;;;;2.53;1.00;;;;;;;;;;5121532;28;20207;-82
2021/03/17 12:22:46;;;;;;;10.80;1.52;;;;;;;;;;5121017;28;20284;-82
2021/03/17 12:25:12;;;;;;;8.68;1.75;;;;;;;;;;5119585;28;20190;-82
2021/03/17 12:27:42;;;;;;;8.65;1.77;;;;;;;;;;5102391;28;20047;-82
2021/03/17 12:30:13;;;;;;;5.45;1.30;;;;;;;;;;5108304;28;20043;-82
2021/03/17 12:32:39;;;;;;;8.02;1.80;;;;;;;;;;5108600;28;20265;-83
2021/03/17 12:35:10;;;;;;;9.48;1.35;;;;;;;;;;5107675;28;20660;-81
2021/03/17 12:37:43;;;;;;;3.60;0.95;;;;;;;;;;5113081;28;20073;-82
2021/03/17 12:40:13;;;;;;;9.32;1.77;;;;;;;;;;5091960;28;20054;-82
2021/03/17 12:42:42;;;;;;;7.30;1.17;;;;;;;;;;5112260;28;20321;-83
2021/03/17 12:45:10;;;;;;;5.53;1.75;;;;;;;;;;5088356;28;20395;-82
2021/03/17 12:47:36;;;;;;;11.43;2.33;;;;;;;;;;5088112;28;20066;-82
2021/03/17 12:50:14;;;;;;;6.38;1.48;;;;;;;;;;5088724;28;20052;-83
2021/03/17 12:52:40;;;;;;;4.60;1.23;;;;;;;;;;5088398;28;20058;-83
2021/03/17 12:55:07;;;;;;;7.57;1.48;;;;;;;;;;5086089;28;20114;-82
2021/03/17 12:57:34;;;;;;;9.40;1.30;;;;;;;;;;5091620;28;20101;-82
2021/03/17 13:00:07;;;;;;;4.40;1.40;;;;;;;;;;5091579;28;20306;-82
2021/03/17 13:02:33;;;;;;;10.77;1.55;;;;;;;;;;5105874;28;20187;-83
2021/03/17 13:05:04;;;;;;;7.57;1.25;;;;;;;;;;5108112;28;20228;-82
2021/03/17 13:07:30;;;;;;;8.75;2.55;;;;;;;;;;5108227;28;20058;-81
2021/03/17 13:09:57;;;;;;;5.75;1.45;;;;;;;;;;5111859;28;20140;-81
2021/03/17 13:12:27;;;;;;;3.95;1.45;;;;;;;;;;5106727;28;20245;-83
2021/03/17 13:14:54;;;;;;;9.55;1.77;;;;;;;;;;5108536;28;20423;-84
2021/03/17 13:17:23;;;;;;;10.50;1.88;;;;;;;;;;5110053;28;20358;-84
2021/03/17 13:19:49;;;;;;;7.47;2.35;;;;;;;;;;5109233;28;20059;-84
2021/03/17 13:22:15;;;;;;;7.82;2.17;;;;;;;;;;5111621;28;20055;-84
2021/03/17 13:24:42;;;;;;;4.95;1.73;;;;;;;;;;5108895;28;20059;-85
2021/03/17 13:27:20;;;;;;;3.08;1.60;;;;;;;;;;5106892;27;20051;-87
2021/03/17 13:29:46;;;;;;;7.53;2.15;;;;;;;;;;5112213;28;20316;-86
2021/03/17 13:32:12;;;;;;;5.15;1.58;;;;;;;;;;5111076;28;20100;-86
2021/03/17 13:34:40;;;;;;;5.80;2.33;;;;;;;;;;5109955;28;20074;-85
2021/03/17 13:37:08;;;;;;;5.28;2.03;;;;;;;;;;5108960;28;20043;-84
2021/03/17 13:39:34;;;;;;;3.95;1.63;;;;;;;;;;5109523;28;20047;-84
2021/03/17 13:42:01;;;;;;;2.40;1.70;;;;;;;;;;5109250;28;20112;-82
2021/03/17 13:44:29;;;;;;;2.55;1.88;;;;;;;;;;5089669;28;20416;-82
2021/03/17 13:46:58;;;;;;;4.95;1.42;;;;;;;;;;5087358;28;20059;-81
2021/03/17 13:49:24;;;;;;;2.55;1.30;;;;;;;;;;5090988;28;20374;-81
2021/03/17 13:51:58;;;;;;;3.05;1.05;;;;;;;;;;5101446;28;20192;-81
2021/03/17 13:54:24;;;;;;;4.63;1.25;;;;;;;;;;5102541;28;20044;-80
2021/03/17 13:56:50;;;;;;;2.38;1.33;;;;;;;;;;5118072;27;20055;-80
2021/03/17 13:59:17;;;;;;;2.22;1.45;;;;;;;;;;5101403;28;20051;-80
2021/03/17 14:01:43;;;;;;;4.10;2.00;;;;;;;;;;5107090;28;20051;-81
2021/03/17 14:04:09;;;;;;;5.97;2.45;;;;;;;;;;5109061;28;20285;-81
2021/03/17 14:06:35;;;;;;;7.07;1.85;;;;;;;;;;5098137;27;20055;-81
2021/03/17 14:09:02;;;;;;;4.32;1.60;;;;;;;;;;5088681;28;20120;-81
2021/03/17 14:11:30;;;;;;;5.78;2.22;;;;;;;;;;5088563;28;20142;-81
2021/03/17 14:13:56;;;;;;;7.60;2.20;;;;;;;;;;5090079;28;20059;-81
2021/03/17 14:16:23;;;;;;;8.55;2.78;;;;;;;;;;5085004;28;20511;-81
2021/03/17 14:18:50;;;;;;;11.80;3.63;;;;;;;;;;5082352;28;20052;-82
2021/03/17 14:21:19;;;;;;;8.70;1.92;;;;;;;;;;5083790;28;20277;-82
2021/03/17 14:23:45;;;;;;;3.83;1.52;;;;;;;;;;5086334;28;20340;-81
2021/03/17 14:26:11;;;;;;;2.67;1.10;;;;;;;;;;5087620;28;20056;-81
2021/03/17 14:28:40;;;;;;;3.72;1.33;;;;;;;;;;5086061;28;20477;-81
2021/03/17 14:31:09;;;;;;;2.30;1.35;;;;;;;;;;5091834;28;20162;-82
2021/03/17 14:33:35;;;;;;;2.15;1.27;;;;;;;;;;5108014;28;20059;-81
2021/03/17 14:36:12;;;;;;;2.25;1.38;;;;;;;;;;5108868;28;20373;-82
2021/03/17 14:38:38;;;;;;;3.20;1.30;;;;;;;;;;5107898;28;20063;-82
2021/03/17 14:41:09;;;;;;;1.95;1.13;;;;;;;;;;5108844;28;20270;-82
2021/03/17 14:43:35;;;;;;;2.45;1.08;;;;;;;;;;5106268;28;20059;-82
2021/03/17 14:46:01;;;;;;;3.28;1.50;;;;;;;;;;5110202;28;20065;-82
2021/03/17 14:48:27;;;;;;;3.97;1.60;;;;;;;;;;5117657;28;20048;-82
2021/03/17 14:50:56;;;;;;;3.85;1.60;;;;;;;;;;5123117;28;20092;-82
2021/03/17 14:53:22;;;;;;;2.38;1.40;;;;;;;;;;5125113;28;20040;-81
2021/03/17 14:56:00;;;;;;;1.50;0.93;;;;;;;;;;5122597;28;20219;-82
2021/03/17 14:58:26;;;;;;;4.28;1.45;;;;;;;;;;5117233;28;20149;-82
2021/03/17 15:00:55;;;;;;;7.43;1.30;;;;;;;;;;5102978;28;20573;-82